sensor_id;sensor_type;location;lat;lon;timestamp;temperature;humidity
34201;DHT22;20469;55.638;37.670;2023-02-21T00:02:33;-9.60;99.90
34201;DHT22;20469;55.638;37.670;2023-02-21T00:05:19;-9.80;99.90
34201;DHT22;20469;55.638;37.670;2023-02-21T00:08:05;-9.70;99.90
34201;DHT22;20469;55.638;37.670;2023-02-21T00:10:53;-9.80;99.90
34201;DHT22;20469;55.638;37.670;2023-02-21T00:13:41;-9.80;99.90
34201;DHT22;20469;55.638;37.670;2023-02-21T00:16:27;-9.90;99.90
34201;DHT22;20469;55.638;37.670;2023-02-21T00:19:15;-9.90;99.90
34201;DHT22;20469;55.638;37.670;2023-02-21T00:22:01;-9.90;99.90
34201;DHT22;20469;55.638;37.670;2023-02-21T00:24:48;-9.80;99.90
34201;DHT22;20469;55.638;37.670;2023-02-21T00:27:34;-9.90;99.90
34201;DHT22;20469;55.638;37.670;2023-02-21T00:30:20;-9.90;99.90
34201;DHT22;20469;55.638;37.670;2023-02-21T00:33:06;-9.90;99.90
34201;DHT22;20469;55.638;37.670;2023-02-21T00:35:53;-10.00;99.90
34201;DHT22;20469;55.638;37.670;2023-02-21T00:38:38;-9.80;99.90
34201;DHT22;20469;55.638;37.670;2023-02-21T00:41:25;-9.90;99.90
34201;DHT22;20469;55.638;37.670;2023-02-21T00:44:10;-10.00;99.90
34201;DHT22;20469;55.638;37.670;2023-02-21T00:46:57;-9.90;99.90
34201;DHT22;20469;55.638;37.670;2023-02-21T00:49:44;-9.90;99.90
34201;DHT22;20469;55.638;37.670;2023-02-21T00:52:30;-10.00;99.90
34201;DHT22;20469;55.638;37.670;2023-02-21T00:55:17;-10.00;99.90
34201;DHT22;20469;55.638;37.670;2023-02-21T00:58:03;-10.00;99.90
34201;DHT22;20469;55.638;37.670;2023-02-21T01:00:49;-10.00;99.90
34201;DHT22;20469;55.638;37.670;2023-02-21T01:03:35;-10.10;99.90
34201;DHT22;20469;55.638;37.670;2023-02-21T01:06:21;-10.10;99.90
34201;DHT22;20469;55.638;37.670;2023-02-21T01:09:07;-9.90;99.90
34201;DHT22;20469;55.638;37.670;2023-02-21T01:11:53;-10.20;99.90
34201;DHT22;20469;55.638;37.670;2023-02-21T01:14:39;-10.20;99.90
34201;DHT22;20469;55.638;37.670;2023-02-21T01:17:25;-10.20;99.90
34201;DHT22;20469;55.638;37.670;2023-02-21T01:20:12;-10.20;99.90
34201;DHT22;20469;55.638;37.670;2023-02-21T01:22:58;-10.20;99.90
34201;DHT22;20469;55.638;37.670;2023-02-21T01:25:44;-10.30;99.90
34201;DHT22;20469;55.638;37.670;2023-02-21T01:28:30;-10.20;99.90
34201;DHT22;20469;55.638;37.670;2023-02-21T01:31:18;-10.20;99.90
34201;DHT22;20469;55.638;37.670;2023-02-21T01:34:05;-10.30;99.90
34201;DHT22;20469;55.638;37.670;2023-02-21T01:36:51;-10.30;99.90
34201;DHT22;20469;55.638;37.670;2023-02-21T01:39:38;-10.30;99.90
34201;DHT22;20469;55.638;37.670;2023-02-21T01:42:24;-10.20;99.90
34201;DHT22;20469;55.638;37.670;2023-02-21T01:48:51;-10.20;99.90
34201;DHT22;20469;55.638;37.670;2023-02-21T01:51:39;-10.20;99.90
34201;DHT22;20469;55.638;37.670;2023-02-21T01:54:31;-10.20;99.90
34201;DHT22;20469;55.638;37.670;2023-02-21T01:57:19;-10.20;99.90
34201;DHT22;20469;55.638;37.670;2023-02-21T02:00:10;-10.20;99.90
34201;DHT22;20469;55.638;37.670;2023-02-21T02:03:05;-10.10;99.90
34201;DHT22;20469;55.638;37.670;2023-02-21T02:05:58;-10.10;99.90
34201;DHT22;20469;55.638;37.670;2023-02-21T02:08:45;-10.20;99.90
34201;DHT22;20469;55.638;37.670;2023-02-21T02:43:15;-10.40;99.90
34201;DHT22;20469;55.638;37.670;2023-02-21T02:45:50;-10.50;99.90
34201;DHT22;20469;55.638;37.670;2023-02-21T02:50:49;-10.90;99.90
34201;DHT22;20469;55.638;37.670;2023-02-21T02:53:24;-10.90;99.90
34201;DHT22;20469;55.638;37.670;2023-02-21T02:58:30;-11.10;99.90
34201;DHT22;20469;55.638;37.670;2023-02-21T03:07:41;-11.20;99.50
34201;DHT22;20469;55.638;37.670;2023-02-21T03:12:59;-11.20;96.10
34201;DHT22;20469;55.638;37.670;2023-02-21T03:18:30;-11.30;95.00
34201;DHT22;20469;55.638;37.670;2023-02-21T03:21:03;-11.40;94.10
34201;DHT22;20469;55.638;37.670;2023-02-21T03:23:34;-11.40;93.80
34201;DHT22;20469;55.638;37.670;2023-02-21T03:26:04;-11.40;93.50
34201;DHT22;20469;55.638;37.670;2023-02-21T03:28:34;-11.50;92.80
34201;DHT22;20469;55.638;37.670;2023-02-21T03:31:04;-11.20;96.90
34201;DHT22;20469;55.638;37.670;2023-02-21T03:33:34;-11.30;93.80
34201;DHT22;20469;55.638;37.670;2023-02-21T03:36:05;-11.40;92.40
34201;DHT22;20469;55.638;37.670;2023-02-21T03:38:33;-11.50;92.30
34201;DHT22;20469;55.638;37.670;2023-02-21T03:41:01;-11.40;93.30
34201;DHT22;20469;55.638;37.670;2023-02-21T03:43:29;-11.50;93.40
34201;DHT22;20469;55.638;37.670;2023-02-21T03:45:56;-11.40;94.40
34201;DHT22;20469;55.638;37.670;2023-02-21T03:48:24;-11.20;96.60
34201;DHT22;20469;55.638;37.670;2023-02-21T03:50:59;-11.20;95.60
34201;DHT22;20469;55.638;37.670;2023-02-21T03:53:26;-11.40;91.80
34201;DHT22;20469;55.638;37.670;2023-02-21T03:55:54;-11.30;93.80
34201;DHT22;20469;55.638;37.670;2023-02-21T03:58:22;-11.30;92.70
34201;DHT22;20469;55.638;37.670;2023-02-21T04:00:50;-11.40;91.10
34201;DHT22;20469;55.638;37.670;2023-02-21T04:03:18;-11.40;91.30
34201;DHT22;20469;55.638;37.670;2023-02-21T04:05:45;-11.10;96.50
34201;DHT22;20469;55.638;37.670;2023-02-21T04:08:13;-11.00;96.30
34201;DHT22;20469;55.638;37.670;2023-02-21T04:10:41;-11.00;91.80
34201;DHT22;20469;55.638;37.670;2023-02-21T04:13:19;-11.20;85.30
34201;DHT22;20469;55.638;37.670;2023-02-21T04:15:46;-11.10;88.10
34201;DHT22;20469;55.638;37.670;2023-02-21T04:18:14;-10.80;90.60
34201;DHT22;20469;55.638;37.670;2023-02-21T04:20:42;-10.90;84.50
34201;DHT22;20469;55.638;37.670;2023-02-21T04:23:10;-11.10;75.40
34201;DHT22;20469;55.638;37.670;2023-02-21T04:25:37;-11.20;70.50
34201;DHT22;20469;55.638;37.670;2023-02-21T04:28:05;-11.20;69.60
34201;DHT22;20469;55.638;37.670;2023-02-21T04:30:33;-11.40;68.40
34201;DHT22;20469;55.638;37.670;2023-02-21T04:33:00;-11.40;67.70
34201;DHT22;20469;55.638;37.670;2023-02-21T04:35:29;-11.10;77.50
34201;DHT22;20469;55.638;37.670;2023-02-21T04:37:57;-11.30;67.70
34201;DHT22;20469;55.638;37.670;2023-02-21T04:40:25;-11.40;64.80
34201;DHT22;20469;55.638;37.670;2023-02-21T04:42:52;-11.50;61.90
34201;DHT22;20469;55.638;37.670;2023-02-21T04:45:20;-11.40;63.30
34201;DHT22;20469;55.638;37.670;2023-02-21T04:47:47;-11.50;60.10
34201;DHT22;20469;55.638;37.670;2023-02-21T04:50:15;-11.70;57.80
34201;DHT22;20469;55.638;37.670;2023-02-21T04:52:43;-11.80;59.20
34201;DHT22;20469;55.638;37.670;2023-02-21T04:55:11;-11.70;65.40
34201;DHT22;20469;55.638;37.670;2023-02-21T04:57:38;-11.70;64.30
34201;DHT22;20469;55.638;37.670;2023-02-21T05:00:06;-11.70;65.80
34201;DHT22;20469;55.638;37.670;2023-02-21T05:02:34;-11.80;61.30
34201;DHT22;20469;55.638;37.670;2023-02-21T05:05:02;-11.90;59.20
34201;DHT22;20469;55.638;37.670;2023-02-21T05:07:30;-12.00;59.20
34201;DHT22;20469;55.638;37.670;2023-02-21T05:09:58;-12.10;57.90
34201;DHT22;20469;55.638;37.670;2023-02-21T05:12:25;-11.90;62.40
34201;DHT22;20469;55.638;37.670;2023-02-21T05:14:53;-12.00;57.90
34201;DHT22;20469;55.638;37.670;2023-02-21T05:17:21;-12.10;56.80
34201;DHT22;20469;55.638;37.670;2023-02-21T05:19:49;-12.10;58.30
34201;DHT22;20469;55.638;37.670;2023-02-21T05:22:18;-12.00;59.60
34201;DHT22;20469;55.638;37.670;2023-02-21T05:24:47;-12.00;57.50
34201;DHT22;20469;55.638;37.670;2023-02-21T05:27:17;-12.10;53.10
34201;DHT22;20469;55.638;37.670;2023-02-21T05:29:48;-12.00;55.30
34201;DHT22;20469;55.638;37.670;2023-02-21T05:32:18;-12.20;50.50
34201;DHT22;20469;55.638;37.670;2023-02-21T05:34:46;-12.20;47.40
34201;DHT22;20469;55.638;37.670;2023-02-21T05:37:15;-12.10;50.10
34201;DHT22;20469;55.638;37.670;2023-02-21T05:39:43;-12.10;47.50
34201;DHT22;20469;55.638;37.670;2023-02-21T05:42:11;-11.40;43.80
34201;DHT22;20469;55.638;37.670;2023-02-21T05:44:38;-12.30;44.30
34201;DHT22;20469;55.638;37.670;2023-02-21T05:47:06;-12.30;44.60
34201;DHT22;20469;55.638;37.670;2023-02-21T05:49:34;-12.30;47.60
34201;DHT22;20469;55.638;37.670;2023-02-21T05:52:01;-12.10;50.60
34201;DHT22;20469;55.638;37.670;2023-02-21T05:54:31;-12.20;47.00
34201;DHT22;20469;55.638;37.670;2023-02-21T05:56:59;-12.30;45.00
34201;DHT22;20469;55.638;37.670;2023-02-21T05:59:27;-12.30;43.90
34201;DHT22;20469;55.638;37.670;2023-02-21T06:01:55;-12.30;47.10
34201;DHT22;20469;55.638;37.670;2023-02-21T06:04:23;-12.10;52.00
34201;DHT22;20469;55.638;37.670;2023-02-21T06:06:51;-12.00;49.90
34201;DHT22;20469;55.638;37.670;2023-02-21T06:09:20;-12.10;44.60
34201;DHT22;20469;55.638;37.670;2023-02-21T06:11:48;-12.00;45.70
34201;DHT22;20469;55.638;37.670;2023-02-21T06:14:19;-11.90;45.10
34201;DHT22;20469;55.638;37.670;2023-02-21T06:16:47;-11.70;46.70
34201;DHT22;20469;55.638;37.670;2023-02-21T06:19:15;-11.50;43.20
34201;DHT22;20469;55.638;37.670;2023-02-21T06:21:44;-11.90;29.90
34201;DHT22;20469;55.638;37.670;2023-02-21T06:24:12;-11.50;36.90
34201;DHT22;20469;55.638;37.670;2023-02-21T06:26:40;-11.40;32.30
34201;DHT22;20469;55.638;37.670;2023-02-21T06:29:09;-11.70;23.10
34201;DHT22;20469;55.638;37.670;2023-02-21T06:31:37;-11.50;24.60
34201;DHT22;20469;55.638;37.670;2023-02-21T06:34:06;-11.50;22.10
34201;DHT22;20469;55.638;37.670;2023-02-21T06:36:34;-11.90;14.70
34201;DHT22;20469;55.638;37.670;2023-02-21T06:39:02;-11.70;14.70
34201;DHT22;20469;55.638;37.670;2023-02-21T06:41:30;-11.90;13.70
34201;DHT22;20469;55.638;37.670;2023-02-21T06:43:58;-12.00;12.80
34201;DHT22;20469;55.638;37.670;2023-02-21T06:46:28;-11.90;13.20
34201;DHT22;20469;55.638;37.670;2023-02-21T06:48:57;-11.90;12.40
34201;DHT22;20469;55.638;37.670;2023-02-21T06:51:24;-11.50;14.10
34201;DHT22;20469;55.638;37.670;2023-02-21T06:53:58;-11.40;13.00
34201;DHT22;20469;55.638;37.670;2023-02-21T06:56:26;-11.70;4.60
34201;DHT22;20469;55.638;37.670;2023-02-21T06:58:55;-11.70;4.30
34201;DHT22;20469;55.638;37.670;2023-02-21T07:01:27;-11.80;3.10
34201;DHT22;20469;55.638;37.670;2023-02-21T07:03:56;-11.60;6.70
34201;DHT22;20469;55.638;37.670;2023-02-21T07:06:24;-11.70;3.70
34201;DHT22;20469;55.638;37.670;2023-02-21T07:08:55;-11.70;3.00
34201;DHT22;20469;55.638;37.670;2023-02-21T07:11:23;-11.60;2.70
34201;DHT22;20469;55.638;37.670;2023-02-21T07:13:52;-11.90;1.00
34201;DHT22;20469;55.638;37.670;2023-02-21T07:16:20;-11.50;1.70
34201;DHT22;20469;55.638;37.670;2023-02-21T07:18:48;-11.80;1.00
34201;DHT22;20469;55.638;37.670;2023-02-21T07:21:17;-10.80;3.80
34201;DHT22;20469;55.638;37.670;2023-02-21T07:23:47;-11.00;1.00
34201;DHT22;20469;55.638;37.670;2023-02-21T07:26:14;-11.50;1.00
34201;DHT22;20469;55.638;37.670;2023-02-21T07:28:42;-11.60;1.00
34201;DHT22;20469;55.638;37.670;2023-02-21T07:31:10;-11.50;1.00
34201;DHT22;20469;55.638;37.670;2023-02-21T07:33:38;-11.40;1.00
34201;DHT22;20469;55.638;37.670;2023-02-21T07:36:06;-11.60;1.00
34201;DHT22;20469;55.638;37.670;2023-02-21T07:38:34;-11.30;1.00
34201;DHT22;20469;55.638;37.670;2023-02-21T07:41:02;-11.30;1.00
34201;DHT22;20469;55.638;37.670;2023-02-21T07:43:31;-11.30;1.00
34201;DHT22;20469;55.638;37.670;2023-02-21T07:45:59;-11.50;1.00
34201;DHT22;20469;55.638;37.670;2023-02-21T07:48:27;-11.40;1.00
34201;DHT22;20469;55.638;37.670;2023-02-21T07:50:55;-11.30;1.00
34201;DHT22;20469;55.638;37.670;2023-02-21T07:53:22;-11.10;1.00
34201;DHT22;20469;55.638;37.670;2023-02-21T07:55:50;-10.70;1.00
34201;DHT22;20469;55.638;37.670;2023-02-21T07:58:17;-10.10;1.00
34201;DHT22;20469;55.638;37.670;2023-02-21T08:00:47;-11.10;1.00
34201;DHT22;20469;55.638;37.670;2023-02-21T08:03:15;-10.80;1.00
34201;DHT22;20469;55.638;37.670;2023-02-21T08:05:43;-10.70;1.00
34201;DHT22;20469;55.638;37.670;2023-02-21T08:08:14;-10.50;1.00
34201;DHT22;20469;55.638;37.670;2023-02-21T08:10:41;-10.40;1.00
34201;DHT22;20469;55.638;37.670;2023-02-21T08:13:09;-10.20;1.00
34201;DHT22;20469;55.638;37.670;2023-02-21T08:15:40;-10.70;1.00
34201;DHT22;20469;55.638;37.670;2023-02-21T08:18:15;-10.40;1.00
34201;DHT22;20469;55.638;37.670;2023-02-21T08:20:46;-10.40;1.00
34201;DHT22;20469;55.638;37.670;2023-02-21T08:23:14;-10.40;1.00
34201;DHT22;20469;55.638;37.670;2023-02-21T08:25:41;-10.30;1.00
34201;DHT22;20469;55.638;37.670;2023-02-21T08:28:09;-9.90;1.00
34201;DHT22;20469;55.638;37.670;2023-02-21T08:30:37;-9.80;1.00
34201;DHT22;20469;55.638;37.670;2023-02-21T08:33:05;-10.20;1.00
34201;DHT22;20469;55.638;37.670;2023-02-21T08:35:35;-10.20;1.00
34201;DHT22;20469;55.638;37.670;2023-02-21T08:38:03;-9.80;1.00
34201;DHT22;20469;55.638;37.670;2023-02-21T08:40:31;-9.90;1.00
34201;DHT22;20469;55.638;37.670;2023-02-21T08:43:00;-9.60;1.00
34201;DHT22;20469;55.638;37.670;2023-02-21T08:45:28;-8.50;1.00
34201;DHT22;20469;55.638;37.670;2023-02-21T08:47:57;-9.30;1.00
34201;DHT22;20469;55.638;37.670;2023-02-21T08:50:26;-9.40;1.00
34201;DHT22;20469;55.638;37.670;2023-02-21T08:52:55;-9.80;1.00
34201;DHT22;20469;55.638;37.670;2023-02-21T08:55:22;-9.50;1.00
34201;DHT22;20469;55.638;37.670;2023-02-21T08:57:52;-9.10;1.00
34201;DHT22;20469;55.638;37.670;2023-02-21T09:00:22;-9.40;1.00
34201;DHT22;20469;55.638;37.670;2023-02-21T09:02:51;-9.30;1.00
34201;DHT22;20469;55.638;37.670;2023-02-21T09:05:22;-10.10;1.00
34201;DHT22;20469;55.638;37.670;2023-02-21T09:07:55;-9.80;1.00
34201;DHT22;20469;55.638;37.670;2023-02-21T09:10:27;-9.60;1.00
34201;DHT22;20469;55.638;37.670;2023-02-21T09:12:55;-9.60;1.00
34201;DHT22;20469;55.638;37.670;2023-02-21T09:15:23;-9.30;1.00
34201;DHT22;20469;55.638;37.670;2023-02-21T09:17:51;-9.10;1.00
34201;DHT22;20469;55.638;37.670;2023-02-21T09:20:25;-9.30;1.00
34201;DHT22;20469;55.638;37.670;2023-02-21T09:22:53;-9.20;1.00
34201;DHT22;20469;55.638;37.670;2023-02-21T09:25:23;-9.30;1.00
34201;DHT22;20469;55.638;37.670;2023-02-21T09:27:52;-9.60;1.00
34201;DHT22;20469;55.638;37.670;2023-02-21T09:30:23;-9.20;1.00
34201;DHT22;20469;55.638;37.670;2023-02-21T09:32:53;-9.40;1.00
34201;DHT22;20469;55.638;37.670;2023-02-21T09:35:22;-9.30;1.00
34201;DHT22;20469;55.638;37.670;2023-02-21T09:37:49;-9.50;1.00
34201;DHT22;20469;55.638;37.670;2023-02-21T09:42:53;-8.80;1.00
34201;DHT22;20469;55.638;37.670;2023-02-21T09:45:25;-8.40;1.00
34201;DHT22;20469;55.638;37.670;2023-02-21T09:47:58;-8.50;1.00
34201;DHT22;20469;55.638;37.670;2023-02-21T09:50:28;-9.20;1.00
34201;DHT22;20469;55.638;37.670;2023-02-21T09:53:00;-8.90;1.00
34201;DHT22;20469;55.638;37.670;2023-02-21T09:55:34;-9.00;1.00
34201;DHT22;20469;55.638;37.670;2023-02-21T09:58:04;-8.80;1.00
34201;DHT22;20469;55.638;37.670;2023-02-21T10:00:35;-9.30;1.00
34201;DHT22;20469;55.638;37.670;2023-02-21T10:12:09;-9.00;1.00
34201;DHT22;20469;55.638;37.670;2023-02-21T10:15:03;-8.80;1.00
34201;DHT22;20469;55.638;37.670;2023-02-21T10:17:38;-8.80;1.00
34201;DHT22;20469;55.638;37.670;2023-02-21T10:20:19;-8.40;1.00
34201;DHT22;20469;55.638;37.670;2023-02-21T10:22:49;-8.70;1.00
34201;DHT22;20469;55.638;37.670;2023-02-21T10:25:26;-8.70;1.00
34201;DHT22;20469;55.638;37.670;2023-02-21T10:27:57;-9.60;1.00
34201;DHT22;20469;55.638;37.670;2023-02-21T10:30:37;-8.50;1.00
34201;DHT22;20469;55.638;37.670;2023-02-21T10:33:07;-7.40;1.00
34201;DHT22;20469;55.638;37.670;2023-02-21T10:35:37;-6.90;1.00
34201;DHT22;20469;55.638;37.670;2023-02-21T10:38:18;-7.10;1.00
34201;DHT22;20469;55.638;37.670;2023-02-21T10:40:55;-6.90;1.00
34201;DHT22;20469;55.638;37.670;2023-02-21T10:43:31;-3.60;1.00
34201;DHT22;20469;55.638;37.670;2023-02-21T10:48:41;-2.30;1.00
34201;DHT22;20469;55.638;37.670;2023-02-21T10:51:15;-0.10;1.00
34201;DHT22;20469;55.638;37.670;2023-02-21T10:53:45;-0.80;1.00
34201;DHT22;20469;55.638;37.670;2023-02-21T10:59:07;-2.80;1.00
34201;DHT22;20469;55.638;37.670;2023-02-21T11:01:44;-1.30;1.00
34201;DHT22;20469;55.638;37.670;2023-02-21T12:48:59;-5.00;1.00
34201;DHT22;20469;55.638;37.670;2023-02-21T12:51:10;-2.90;1.00
34201;DHT22;20469;55.638;37.670;2023-02-21T12:54:01;-2.00;1.00
34201;DHT22;20469;55.638;37.670;2023-02-21T12:56:58;-3.10;1.00
34201;DHT22;20469;55.638;37.670;2023-02-21T13:05:33;-2.90;1.00
34201;DHT22;20469;55.638;37.670;2023-02-21T13:08:29;-2.20;1.00
34201;DHT22;20469;55.638;37.670;2023-02-21T13:11:13;-2.20;1.00
34201;DHT22;20469;55.638;37.670;2023-02-21T13:13:41;-4.00;1.00
34201;DHT22;20469;55.638;37.670;2023-02-21T13:16:10;-6.30;1.00
34201;DHT22;20469;55.638;37.670;2023-02-21T13:18:49;-6.60;1.00
34201;DHT22;20469;55.638;37.670;2023-02-21T13:30:13;-7.40;1.00
34201;DHT22;20469;55.638;37.670;2023-02-21T13:33:04;-6.60;1.00
34201;DHT22;20469;55.638;37.670;2023-02-21T13:35:37;-6.50;1.00
34201;DHT22;20469;55.638;37.670;2023-02-21T13:38:07;-6.50;1.00
34201;DHT22;20469;55.638;37.670;2023-02-21T13:40:47;-6.60;1.00
34201;DHT22;20469;55.638;37.670;2023-02-21T13:43:26;-6.70;1.00
34201;DHT22;20469;55.638;37.670;2023-02-21T13:57:45;-6.60;1.00
34201;DHT22;20469;55.638;37.670;2023-02-21T14:08:55;-8.00;1.00
34201;DHT22;20469;55.638;37.670;2023-02-21T14:11:27;-8.00;1.00
34201;DHT22;20469;55.638;37.670;2023-02-21T14:14:02;-8.20;1.00
34201;DHT22;20469;55.638;37.670;2023-02-21T14:16:36;-8.30;1.00
34201;DHT22;20469;55.638;37.670;2023-02-21T14:19:07;-7.80;1.00
34201;DHT22;20469;55.638;37.670;2023-02-21T14:21:40;-8.30;1.00
34201;DHT22;20469;55.638;37.670;2023-02-21T14:26:54;-8.20;1.00
34201;DHT22;20469;55.638;37.670;2023-02-21T14:32:24;-8.20;1.00
34201;DHT22;20469;55.638;37.670;2023-02-21T14:34:55;-8.60;1.00
34201;DHT22;20469;55.638;37.670;2023-02-21T14:45:52;-8.70;1.00
34201;DHT22;20469;55.638;37.670;2023-02-21T14:51:39;-8.80;1.00
34201;DHT22;20469;55.638;37.670;2023-02-21T14:54:32;-9.00;1.00
34201;DHT22;20469;55.638;37.670;2023-02-21T14:57:41;-9.00;1.00
34201;DHT22;20469;55.638;37.670;2023-02-21T15:00:32;-9.00;1.00
34201;DHT22;20469;55.638;37.670;2023-02-21T15:03:19;-8.90;1.00
34201;DHT22;20469;55.638;37.670;2023-02-21T15:08:19;-8.60;1.00
34201;DHT22;20469;55.638;37.670;2023-02-21T15:10:48;-9.00;1.00
34201;DHT22;20469;55.638;37.670;2023-02-21T15:13:28;-9.00;1.00
34201;DHT22;20469;55.638;37.670;2023-02-21T15:18:30;-9.20;1.00
34201;DHT22;20469;55.638;37.670;2023-02-21T15:21:30;-9.20;1.00
34201;DHT22;20469;55.638;37.670;2023-02-21T15:24:10;-9.10;1.00
34201;DHT22;20469;55.638;37.670;2023-02-21T15:26:39;-8.90;1.00
34201;DHT22;20469;55.638;37.670;2023-02-21T15:29:09;-9.10;1.00
34201;DHT22;20469;55.638;37.670;2023-02-21T15:31:46;-9.10;1.00
34201;DHT22;20469;55.638;37.670;2023-02-21T15:37:24;-9.30;1.00
34201;DHT22;20469;55.638;37.670;2023-02-21T15:39:57;-9.00;1.00
34201;DHT22;20469;55.638;37.670;2023-02-21T15:42:29;-9.20;1.00
34201;DHT22;20469;55.638;37.670;2023-02-21T15:45:04;-9.30;1.00
34201;DHT22;20469;55.638;37.670;2023-02-21T15:47:34;-9.30;1.00
34201;DHT22;20469;55.638;37.670;2023-02-21T15:50:34;-9.00;1.00
34201;DHT22;20469;55.638;37.670;2023-02-21T15:55:41;-9.00;1.00
34201;DHT22;20469;55.638;37.670;2023-02-21T16:00:41;-8.90;1.00
34201;DHT22;20469;55.638;37.670;2023-02-21T16:03:29;-9.20;1.00
34201;DHT22;20469;55.638;37.670;2023-02-21T16:08:51;-9.30;1.00
34201;DHT22;20469;55.638;37.670;2023-02-21T16:11:19;-9.50;1.00
34201;DHT22;20469;55.638;37.670;2023-02-21T16:13:47;-9.50;1.00
34201;DHT22;20469;55.638;37.670;2023-02-21T16:16:14;-9.50;1.00
34201;DHT22;20469;55.638;37.670;2023-02-21T16:18:42;-9.60;1.00
34201;DHT22;20469;55.638;37.670;2023-02-21T16:21:22;-9.50;1.00
34201;DHT22;20469;55.638;37.670;2023-02-21T16:23:51;-9.50;1.00
34201;DHT22;20469;55.638;37.670;2023-02-21T16:26:24;-9.50;1.00
34201;DHT22;20469;55.638;37.670;2023-02-21T16:28:55;-9.60;1.00
34201;DHT22;20469;55.638;37.670;2023-02-21T16:33:53;-9.40;1.00
34201;DHT22;20469;55.638;37.670;2023-02-21T16:36:27;-9.60;1.00
34201;DHT22;20469;55.638;37.670;2023-02-21T16:38:57;-9.20;1.00
34201;DHT22;20469;55.638;37.670;2023-02-21T16:41:25;-9.50;1.00
34201;DHT22;20469;55.638;37.670;2023-02-21T16:43:53;-9.60;1.00
34201;DHT22;20469;55.638;37.670;2023-02-21T16:46:26;-9.40;1.00
34201;DHT22;20469;55.638;37.670;2023-02-21T16:48:56;-9.30;1.00
34201;DHT22;20469;55.638;37.670;2023-02-21T16:51:26;-9.60;1.00
34201;DHT22;20469;55.638;37.670;2023-02-21T16:54:00;-9.50;1.00
34201;DHT22;20469;55.638;37.670;2023-02-21T16:56:28;-9.80;1.00
34201;DHT22;20469;55.638;37.670;2023-02-21T16:58:56;-9.90;1.00
34201;DHT22;20469;55.638;37.670;2023-02-21T17:01:29;-9.80;1.00
34201;DHT22;20469;55.638;37.670;2023-02-21T17:04:01;-9.70;1.00
34201;DHT22;20469;55.638;37.670;2023-02-21T17:06:31;-9.80;1.00
34201;DHT22;20469;55.638;37.670;2023-02-21T17:09:03;-10.00;1.00
34201;DHT22;20469;55.638;37.670;2023-02-21T17:11:31;-10.10;1.00
34201;DHT22;20469;55.638;37.670;2023-02-21T17:13:58;-9.90;1.00
34201;DHT22;20469;55.638;37.670;2023-02-21T17:16:31;-10.00;1.00
34201;DHT22;20469;55.638;37.670;2023-02-21T17:19:01;-10.10;1.00
34201;DHT22;20469;55.638;37.670;2023-02-21T17:21:30;-10.10;1.00
34201;DHT22;20469;55.638;37.670;2023-02-21T17:23:58;-9.90;1.00
34201;DHT22;20469;55.638;37.670;2023-02-21T17:26:25;-10.00;1.00
34201;DHT22;20469;55.638;37.670;2023-02-21T17:28:53;-10.10;1.00
34201;DHT22;20469;55.638;37.670;2023-02-21T17:31:21;-10.10;1.00
34201;DHT22;20469;55.638;37.670;2023-02-21T17:33:50;-10.30;1.00
34201;DHT22;20469;55.638;37.670;2023-02-21T17:36:20;-10.20;1.00
34201;DHT22;20469;55.638;37.670;2023-02-21T17:38:49;-10.10;1.00
34201;DHT22;20469;55.638;37.670;2023-02-21T17:41:17;-10.20;1.00
34201;DHT22;20469;55.638;37.670;2023-02-21T17:43:46;-10.10;1.00
34201;DHT22;20469;55.638;37.670;2023-02-21T17:46:15;-10.20;1.00
34201;DHT22;20469;55.638;37.670;2023-02-21T17:48:43;-10.20;1.00
34201;DHT22;20469;55.638;37.670;2023-02-21T17:51:23;-10.40;1.00
34201;DHT22;20469;55.638;37.670;2023-02-21T17:53:53;-10.30;1.00
34201;DHT22;20469;55.638;37.670;2023-02-21T17:56:22;-10.20;1.00
34201;DHT22;20469;55.638;37.670;2023-02-21T17:58:50;-10.40;1.00
34201;DHT22;20469;55.638;37.670;2023-02-21T18:01:19;-9.20;1.00
34201;DHT22;20469;55.638;37.670;2023-02-21T18:03:47;-10.40;1.00
34201;DHT22;20469;55.638;37.670;2023-02-21T18:06:16;-10.30;1.00
34201;DHT22;20469;55.638;37.670;2023-02-21T18:08:44;-10.50;1.00
34201;DHT22;20469;55.638;37.670;2023-02-21T18:11:15;-10.30;1.00
34201;DHT22;20469;55.638;37.670;2023-02-21T18:13:44;-10.40;1.00
34201;DHT22;20469;55.638;37.670;2023-02-21T18:16:12;-10.60;1.00
34201;DHT22;20469;55.638;37.670;2023-02-21T18:18:40;-10.60;1.00
34201;DHT22;20469;55.638;37.670;2023-02-21T18:21:08;-10.50;1.00
34201;DHT22;20469;55.638;37.670;2023-02-21T18:23:36;-10.50;1.00
34201;DHT22;20469;55.638;37.670;2023-02-21T18:26:04;-10.40;1.00
34201;DHT22;20469;55.638;37.670;2023-02-21T18:28:32;-10.60;1.00
34201;DHT22;20469;55.638;37.670;2023-02-21T18:30:59;-10.50;1.00
34201;DHT22;20469;55.638;37.670;2023-02-21T18:33:27;-10.40;1.00
34201;DHT22;20469;55.638;37.670;2023-02-21T18:35:56;-10.70;1.00
34201;DHT22;20469;55.638;37.670;2023-02-21T18:38:25;-10.70;1.00
34201;DHT22;20469;55.638;37.670;2023-02-21T18:40:53;-10.80;1.00
34201;DHT22;20469;55.638;37.670;2023-02-21T18:43:27;-10.80;1.00
34201;DHT22;20469;55.638;37.670;2023-02-21T18:45:56;-10.60;1.00
34201;DHT22;20469;55.638;37.670;2023-02-21T18:48:25;-10.60;1.00
34201;DHT22;20469;55.638;37.670;2023-02-21T18:50:53;-10.80;1.00
34201;DHT22;20469;55.638;37.670;2023-02-21T18:53:21;-10.70;1.00
34201;DHT22;20469;55.638;37.670;2023-02-21T18:55:48;-10.70;1.00
34201;DHT22;20469;55.638;37.670;2023-02-21T18:58:16;-10.50;1.00
34201;DHT22;20469;55.638;37.670;2023-02-21T19:00:44;-10.50;1.00
34201;DHT22;20469;55.638;37.670;2023-02-21T19:03:13;-10.60;1.00
34201;DHT22;20469;55.638;37.670;2023-02-21T19:05:41;-10.70;1.00
34201;DHT22;20469;55.638;37.670;2023-02-21T19:08:08;-10.70;1.00
34201;DHT22;20469;55.638;37.670;2023-02-21T19:10:36;-10.70;1.00
34201;DHT22;20469;55.638;37.670;2023-02-21T19:13:03;-10.70;1.00
34201;DHT22;20469;55.638;37.670;2023-02-21T19:15:31;-10.80;1.00
34201;DHT22;20469;55.638;37.670;2023-02-21T19:17:59;-10.70;1.00
34201;DHT22;20469;55.638;37.670;2023-02-21T19:20:27;-10.80;1.00
34201;DHT22;20469;55.638;37.670;2023-02-21T19:22:54;-10.90;1.00
34201;DHT22;20469;55.638;37.670;2023-02-21T19:25:23;-10.70;1.00
34201;DHT22;20469;55.638;37.670;2023-02-21T19:27:54;-10.80;1.00
34201;DHT22;20469;55.638;37.670;2023-02-21T19:30:28;-10.70;1.00
34201;DHT22;20469;55.638;37.670;2023-02-21T19:33:05;-10.90;1.00
34201;DHT22;20469;55.638;37.670;2023-02-21T19:35:34;-10.90;1.00
34201;DHT22;20469;55.638;37.670;2023-02-21T19:38:07;-10.80;1.00
34201;DHT22;20469;55.638;37.670;2023-02-21T19:40:35;-10.70;1.00
34201;DHT22;20469;55.638;37.670;2023-02-21T19:43:02;-10.90;1.00
34201;DHT22;20469;55.638;37.670;2023-02-21T19:45:30;-10.70;1.00
34201;DHT22;20469;55.638;37.670;2023-02-21T19:47:58;-10.90;1.00
34201;DHT22;20469;55.638;37.670;2023-02-21T19:50:26;-10.80;1.00
34201;DHT22;20469;55.638;37.670;2023-02-21T19:52:57;-11.00;1.00
34201;DHT22;20469;55.638;37.670;2023-02-21T19:55:27;-10.90;1.00